sensor_id;sensor_type;location;lat;lon;timestamp;P1;durP1;ratioP1;P2;durP2;ratioP2
60975;SDS011;46849;48.154;17.042;2023-02-04T00:02:52;5.60;;;1.25;;
60975;SDS011;46849;48.154;17.042;2023-02-04T00:05:37;4.38;;;1.00;;
60975;SDS011;46849;48.154;17.042;2023-02-04T00:08:21;5.88;;;1.40;;
60975;SDS011;46849;48.154;17.042;2023-02-04T00:11:06;4.20;;;1.30;;
60975;SDS011;46849;48.154;17.042;2023-02-04T00:13:51;7.20;;;1.20;;
60975;SDS011;46849;48.154;17.042;2023-02-04T00:16:35;5.70;;;1.67;;
60975;SDS011;46849;48.154;17.042;2023-02-04T00:19:20;3.80;;;1.20;;
60975;SDS011;46849;48.154;17.042;2023-02-04T00:22:05;4.28;;;1.00;;
60975;SDS011;46849;48.154;17.042;2023-02-04T00:24:50;4.82;;;1.38;;
60975;SDS011;46849;48.154;17.042;2023-02-04T00:27:35;6.07;;;0.90;;
60975;SDS011;46849;48.154;17.042;2023-02-04T00:30:20;6.28;;;1.15;;
60975;SDS011;46849;48.154;17.042;2023-02-04T00:33:04;4.30;;;1.23;;
60975;SDS011;46849;48.154;17.042;2023-02-04T00:35:49;4.05;;;1.17;;
60975;SDS011;46849;48.154;17.042;2023-02-04T00:38:34;8.52;;;1.65;;
60975;SDS011;46849;48.154;17.042;2023-02-04T00:41:18;7.30;;;1.27;;
60975;SDS011;46849;48.154;17.042;2023-02-04T00:44:03;5.20;;;1.13;;
60975;SDS011;46849;48.154;17.042;2023-02-04T00:46:48;2.40;;;0.88;;
60975;SDS011;46849;48.154;17.042;2023-02-04T00:49:33;5.28;;;1.08;;
60975;SDS011;46849;48.154;17.042;2023-02-04T00:52:18;6.50;;;1.00;;
60975;SDS011;46849;48.154;17.042;2023-02-04T00:55:03;7.07;;;1.13;;
60975;SDS011;46849;48.154;17.042;2023-02-04T00:57:47;4.18;;;1.05;;
60975;SDS011;46849;48.154;17.042;2023-02-04T01:00:32;3.88;;;1.23;;
60975;SDS011;46849;48.154;17.042;2023-02-04T01:03:16;6.50;;;1.05;;
60975;SDS011;46849;48.154;17.042;2023-02-04T01:06:01;6.60;;;1.27;;
60975;SDS011;46849;48.154;17.042;2023-02-04T01:08:46;6.38;;;1.40;;
60975;SDS011;46849;48.154;17.042;2023-02-04T01:11:31;5.03;;;1.42;;
60975;SDS011;46849;48.154;17.042;2023-02-04T01:14:16;5.40;;;1.15;;
60975;SDS011;46849;48.154;17.042;2023-02-04T01:17:01;5.22;;;1.17;;
60975;SDS011;46849;48.154;17.042;2023-02-04T01:19:46;6.15;;;1.13;;
60975;SDS011;46849;48.154;17.042;2023-02-04T01:22:31;5.15;;;1.25;;
60975;SDS011;46849;48.154;17.042;2023-02-04T01:25:16;7.50;;;1.52;;
60975;SDS011;46849;48.154;17.042;2023-02-04T01:28:02;4.32;;;0.85;;
60975;SDS011;46849;48.154;17.042;2023-02-04T01:30:48;5.47;;;0.88;;
60975;SDS011;46849;48.154;17.042;2023-02-04T01:33:33;4.70;;;1.10;;
60975;SDS011;46849;48.154;17.042;2023-02-04T01:36:18;6.03;;;1.48;;
60975;SDS011;46849;48.154;17.042;2023-02-04T01:39:05;4.60;;;1.15;;
60975;SDS011;46849;48.154;17.042;2023-02-04T01:41:49;5.30;;;1.25;;
60975;SDS011;46849;48.154;17.042;2023-02-04T01:44:34;4.15;;;1.20;;
60975;SDS011;46849;48.154;17.042;2023-02-04T01:47:19;4.65;;;1.15;;
60975;SDS011;46849;48.154;17.042;2023-02-04T01:50:05;5.78;;;1.20;;
60975;SDS011;46849;48.154;17.042;2023-02-04T01:52:51;5.28;;;0.93;;
60975;SDS011;46849;48.154;17.042;2023-02-04T01:55:35;6.38;;;1.08;;
60975;SDS011;46849;48.154;17.042;2023-02-04T01:58:20;5.97;;;1.17;;
60975;SDS011;46849;48.154;17.042;2023-02-04T02:01:08;5.72;;;1.05;;
60975;SDS011;46849;48.154;17.042;2023-02-04T02:03:56;7.78;;;1.02;;
60975;SDS011;46849;48.154;17.042;2023-02-04T02:06:45;4.45;;;0.95;;
60975;SDS011;46849;48.154;17.042;2023-02-04T02:09:33;6.03;;;1.33;;
60975;SDS011;46849;48.154;17.042;2023-02-04T02:12:18;4.68;;;0.98;;
60975;SDS011;46849;48.154;17.042;2023-02-04T02:15:03;5.07;;;1.00;;
60975;SDS011;46849;48.154;17.042;2023-02-04T02:17:48;5.05;;;1.10;;
60975;SDS011;46849;48.154;17.042;2023-02-04T02:20:33;9.27;;;1.38;;
60975;SDS011;46849;48.154;17.042;2023-02-04T02:26:06;4.25;;;1.00;;
60975;SDS011;46849;48.154;17.042;2023-02-04T02:28:51;6.70;;;1.08;;
60975;SDS011;46849;48.154;17.042;2023-02-04T02:31:37;4.80;;;1.50;;
60975;SDS011;46849;48.154;17.042;2023-02-04T02:34:21;4.43;;;0.98;;
60975;SDS011;46849;48.154;17.042;2023-02-04T02:37:07;4.80;;;0.80;;
60975;SDS011;46849;48.154;17.042;2023-02-04T02:39:53;5.60;;;0.88;;
60975;SDS011;46849;48.154;17.042;2023-02-04T02:42:38;2.80;;;0.95;;
60975;SDS011;46849;48.154;17.042;2023-02-04T02:45:26;5.53;;;1.00;;
60975;SDS011;46849;48.154;17.042;2023-02-04T02:48:12;4.47;;;0.90;;
60975;SDS011;46849;48.154;17.042;2023-02-04T02:50:57;4.57;;;1.00;;
60975;SDS011;46849;48.154;17.042;2023-02-04T02:53:42;3.25;;;0.63;;
60975;SDS011;46849;48.154;17.042;2023-02-04T02:56:27;4.25;;;0.80;;
60975;SDS011;46849;48.154;17.042;2023-02-04T02:59:15;2.40;;;0.75;;
60975;SDS011;46849;48.154;17.042;2023-02-04T03:02:01;1.83;;;0.68;;
60975;SDS011;46849;48.154;17.042;2023-02-04T03:04:52;2.88;;;0.70;;
60975;SDS011;46849;48.154;17.042;2023-02-04T03:07:44;4.20;;;0.82;;
60975;SDS011;46849;48.154;17.042;2023-02-04T03:10:28;2.15;;;0.60;;
60975;SDS011;46849;48.154;17.042;2023-02-04T03:13:14;3.63;;;0.68;;
60975;SDS011;46849;48.154;17.042;2023-02-04T03:16:00;3.75;;;1.33;;
60975;SDS011;46849;48.154;17.042;2023-02-04T03:18:47;2.08;;;0.77;;
60975;SDS011;46849;48.154;17.042;2023-02-04T03:21:33;3.83;;;0.80;;
60975;SDS011;46849;48.154;17.042;2023-02-04T03:24:21;3.47;;;0.90;;
60975;SDS011;46849;48.154;17.042;2023-02-04T03:27:06;5.00;;;0.90;;
60975;SDS011;46849;48.154;17.042;2023-02-04T03:29:51;4.75;;;0.75;;
60975;SDS011;46849;48.154;17.042;2023-02-04T03:32:36;5.10;;;0.68;;
60975;SDS011;46849;48.154;17.042;2023-02-04T03:35:21;2.78;;;0.65;;
60975;SDS011;46849;48.154;17.042;2023-02-04T03:38:05;4.30;;;0.82;;
60975;SDS011;46849;48.154;17.042;2023-02-04T03:40:50;5.25;;;1.35;;
60975;SDS011;46849;48.154;17.042;2023-02-04T03:43:34;2.38;;;0.68;;
60975;SDS011;46849;48.154;17.042;2023-02-04T03:46:19;4.43;;;0.60;;
60975;SDS011;46849;48.154;17.042;2023-02-04T03:49:05;2.78;;;0.77;;
60975;SDS011;46849;48.154;17.042;2023-02-04T03:51:50;2.30;;;0.50;;
60975;SDS011;46849;48.154;17.042;2023-02-04T03:54:35;3.58;;;0.85;;
60975;SDS011;46849;48.154;17.042;2023-02-04T03:57:20;2.10;;;0.70;;
60975;SDS011;46849;48.154;17.042;2023-02-04T04:00:04;3.80;;;0.60;;
60975;SDS011;46849;48.154;17.042;2023-02-04T04:02:56;3.95;;;0.90;;
60975;SDS011;46849;48.154;17.042;2023-02-04T04:05:41;2.83;;;0.65;;
60975;SDS011;46849;48.154;17.042;2023-02-04T04:08:26;3.75;;;0.68;;
60975;SDS011;46849;48.154;17.042;2023-02-04T04:11:11;1.33;;;0.45;;
60975;SDS011;46849;48.154;17.042;2023-02-04T04:13:55;2.17;;;0.47;;
60975;SDS011;46849;48.154;17.042;2023-02-04T04:16:40;1.65;;;0.55;;
60975;SDS011;46849;48.154;17.042;2023-02-04T04:19:25;1.30;;;0.30;;
60975;SDS011;46849;48.154;17.042;2023-02-04T04:22:10;0.38;;;0.17;;
60975;SDS011;46849;48.154;17.042;2023-02-04T04:24:55;1.83;;;0.35;;
60975;SDS011;46849;48.154;17.042;2023-02-04T04:27:39;1.52;;;0.22;;
60975;SDS011;46849;48.154;17.042;2023-02-04T04:30:24;0.77;;;0.20;;
60975;SDS011;46849;48.154;17.042;2023-02-04T04:33:09;0.55;;;0.30;;
60975;SDS011;46849;48.154;17.042;2023-02-04T04:35:54;0.75;;;0.20;;
60975;SDS011;46849;48.154;17.042;2023-02-04T04:38:38;0.60;;;0.20;;
60975;SDS011;46849;48.154;17.042;2023-02-04T04:41:23;0.73;;;0.20;;
60975;SDS011;46849;48.154;17.042;2023-02-04T04:44:08;1.45;;;0.10;;
60975;SDS011;46849;48.154;17.042;2023-02-04T04:46:53;1.90;;;0.20;;
60975;SDS011;46849;48.154;17.042;2023-02-04T04:49:37;2.38;;;0.20;;
60975;SDS011;46849;48.154;17.042;2023-02-04T04:52:22;0.65;;;0.10;;
60975;SDS011;46849;48.154;17.042;2023-02-04T04:55:07;0.40;;;0.20;;
60975;SDS011;46849;48.154;17.042;2023-02-04T04:57:52;1.65;;;0.15;;
60975;SDS011;46849;48.154;17.042;2023-02-04T05:00:37;0.32;;;0.20;;
60975;SDS011;46849;48.154;17.042;2023-02-04T05:03:21;0.60;;;0.25;;
60975;SDS011;46849;48.154;17.042;2023-02-04T05:06:06;0.93;;;0.10;;
60975;SDS011;46849;48.154;17.042;2023-02-04T05:08:52;0.52;;;0.10;;
60975;SDS011;46849;48.154;17.042;2023-02-04T05:11:37;0.60;;;0.20;;
60975;SDS011;46849;48.154;17.042;2023-02-04T05:14:22;0.40;;;0.10;;
60975;SDS011;46849;48.154;17.042;2023-02-04T05:17:07;0.40;;;0.20;;
60975;SDS011;46849;48.154;17.042;2023-02-04T05:19:52;0.40;;;0.20;;
60975;SDS011;46849;48.154;17.042;2023-02-04T05:22:36;0.57;;;0.30;;
60975;SDS011;46849;48.154;17.042;2023-02-04T05:25:21;0.50;;;0.22;;
60975;SDS011;46849;48.154;17.042;2023-02-04T05:28:06;0.45;;;0.30;;
60975;SDS011;46849;48.154;17.042;2023-02-04T05:30:51;0.70;;;0.47;;
60975;SDS011;46849;48.154;17.042;2023-02-04T05:33:36;1.15;;;0.30;;
60975;SDS011;46849;48.154;17.042;2023-02-04T05:36:20;1.52;;;0.65;;
60975;SDS011;46849;48.154;17.042;2023-02-04T05:39:05;0.93;;;0.40;;
60975;SDS011;46849;48.154;17.042;2023-02-04T05:41:49;0.68;;;0.50;;
60975;SDS011;46849;48.154;17.042;2023-02-04T05:44:34;1.17;;;0.60;;
60975;SDS011;46849;48.154;17.042;2023-02-04T05:47:19;1.23;;;0.60;;
60975;SDS011;46849;48.154;17.042;2023-02-04T05:50:03;1.08;;;0.60;;
60975;SDS011;46849;48.154;17.042;2023-02-04T05:52:48;0.95;;;0.60;;
60975;SDS011;46849;48.154;17.042;2023-02-04T05:55:33;1.30;;;0.80;;
60975;SDS011;46849;48.154;17.042;2023-02-04T05:58:18;1.73;;;0.85;;
60975;SDS011;46849;48.154;17.042;2023-02-04T06:01:02;1.80;;;0.80;;
60975;SDS011;46849;48.154;17.042;2023-02-04T06:03:48;1.00;;;0.70;;
60975;SDS011;46849;48.154;17.042;2023-02-04T06:06:32;1.30;;;0.70;;
60975;SDS011;46849;48.154;17.042;2023-02-04T06:09:17;1.58;;;0.85;;
60975;SDS011;46849;48.154;17.042;2023-02-04T06:12:02;0.88;;;0.73;;
60975;SDS011;46849;48.154;17.042;2023-02-04T06:14:47;2.53;;;0.85;;
60975;SDS011;46849;48.154;17.042;2023-02-04T06:17:31;3.00;;;0.93;;
60975;SDS011;46849;48.154;17.042;2023-02-04T06:20:16;1.20;;;0.65;;
60975;SDS011;46849;48.154;17.042;2023-02-04T06:23:01;1.42;;;0.95;;
60975;SDS011;46849;48.154;17.042;2023-02-04T06:25:45;2.47;;;1.30;;
60975;SDS011;46849;48.154;17.042;2023-02-04T06:28:32;2.25;;;1.27;;
60975;SDS011;46849;48.154;17.042;2023-02-04T06:31:16;1.90;;;1.00;;
60975;SDS011;46849;48.154;17.042;2023-02-04T06:34:01;2.40;;;0.90;;
60975;SDS011;46849;48.154;17.042;2023-02-04T06:36:45;1.50;;;1.10;;
60975;SDS011;46849;48.154;17.042;2023-02-04T06:39:30;2.13;;;1.58;;
60975;SDS011;46849;48.154;17.042;2023-02-04T06:42:15;3.10;;;1.55;;
60975;SDS011;46849;48.154;17.042;2023-02-04T06:44:59;3.20;;;1.83;;
60975;SDS011;46849;48.154;17.042;2023-02-04T06:47:44;2.50;;;1.50;;
60975;SDS011;46849;48.154;17.042;2023-02-04T06:50:29;2.45;;;1.70;;
60975;SDS011;46849;48.154;17.042;2023-02-04T06:53:14;2.30;;;1.50;;
60975;SDS011;46849;48.154;17.042;2023-02-04T06:55:58;2.22;;;1.70;;
60975;SDS011;46849;48.154;17.042;2023-02-04T06:58:43;2.95;;;1.90;;
60975;SDS011;46849;48.154;17.042;2023-02-04T07:01:27;3.60;;;2.00;;
60975;SDS011;46849;48.154;17.042;2023-02-04T07:04:12;6.10;;;2.03;;
60975;SDS011;46849;48.154;17.042;2023-02-04T07:06:57;2.80;;;2.10;;
60975;SDS011;46849;48.154;17.042;2023-02-04T07:09:42;2.85;;;1.75;;
60975;SDS011;46849;48.154;17.042;2023-02-04T07:12:26;2.83;;;1.80;;
60975;SDS011;46849;48.154;17.042;2023-02-04T07:15:11;2.88;;;2.00;;
60975;SDS011;46849;48.154;17.042;2023-02-04T07:17:55;4.05;;;2.10;;
60975;SDS011;46849;48.154;17.042;2023-02-04T07:20:40;3.03;;;2.25;;
60975;SDS011;46849;48.154;17.042;2023-02-04T07:23:25;3.63;;;2.00;;
60975;SDS011;46849;48.154;17.042;2023-02-04T07:26:11;2.70;;;1.70;;
60975;SDS011;46849;48.154;17.042;2023-02-04T07:28:55;2.75;;;1.65;;
60975;SDS011;46849;48.154;17.042;2023-02-04T07:31:40;2.65;;;1.80;;
60975;SDS011;46849;48.154;17.042;2023-02-04T07:34:25;3.08;;;1.70;;
60975;SDS011;46849;48.154;17.042;2023-02-04T07:37:09;2.45;;;1.60;;
60975;SDS011;46849;48.154;17.042;2023-02-04T07:39:54;4.20;;;1.75;;
60975;SDS011;46849;48.154;17.042;2023-02-04T07:42:39;3.17;;;1.88;;
60975;SDS011;46849;48.154;17.042;2023-02-04T07:45:28;3.30;;;1.80;;
60975;SDS011;46849;48.154;17.042;2023-02-04T07:48:13;2.80;;;1.80;;
60975;SDS011;46849;48.154;17.042;2023-02-04T07:50:58;2.30;;;1.60;;
60975;SDS011;46849;48.154;17.042;2023-02-04T07:53:42;2.38;;;1.40;;
60975;SDS011;46849;48.154;17.042;2023-02-04T07:56:27;4.10;;;2.22;;
60975;SDS011;46849;48.154;17.042;2023-02-04T07:59:12;2.55;;;1.20;;
60975;SDS011;46849;48.154;17.042;2023-02-04T08:01:56;3.22;;;1.42;;
60975;SDS011;46849;48.154;17.042;2023-02-04T08:04:41;2.38;;;1.40;;
60975;SDS011;46849;48.154;17.042;2023-02-04T08:07:25;1.98;;;1.35;;
60975;SDS011;46849;48.154;17.042;2023-02-04T08:10:10;2.63;;;1.20;;
60975;SDS011;46849;48.154;17.042;2023-02-04T08:12:55;2.53;;;0.93;;
60975;SDS011;46849;48.154;17.042;2023-02-04T08:15:40;1.95;;;1.00;;
60975;SDS011;46849;48.154;17.042;2023-02-04T08:18:25;1.48;;;0.95;;
60975;SDS011;46849;48.154;17.042;2023-02-04T08:21:09;2.53;;;1.00;;
60975;SDS011;46849;48.154;17.042;2023-02-04T08:23:54;1.90;;;1.10;;
60975;SDS011;46849;48.154;17.042;2023-02-04T08:26:39;1.95;;;1.05;;
60975;SDS011;46849;48.154;17.042;2023-02-04T08:29:24;1.58;;;0.90;;
60975;SDS011;46849;48.154;17.042;2023-02-04T08:32:09;1.63;;;1.02;;
60975;SDS011;46849;48.154;17.042;2023-02-04T08:34:56;1.10;;;0.80;;
60975;SDS011;46849;48.154;17.042;2023-02-04T08:37:41;1.70;;;0.80;;
60975;SDS011;46849;48.154;17.042;2023-02-04T08:40:26;2.47;;;0.90;;
60975;SDS011;46849;48.154;17.042;2023-02-04T08:43:11;1.95;;;0.63;;
60975;SDS011;46849;48.154;17.042;2023-02-04T08:45:56;1.60;;;0.70;;
60975;SDS011;46849;48.154;17.042;2023-02-04T08:48:40;2.17;;;0.60;;
60975;SDS011;46849;48.154;17.042;2023-02-04T08:51:25;1.60;;;0.80;;
60975;SDS011;46849;48.154;17.042;2023-02-04T08:54:09;1.77;;;0.80;;
60975;SDS011;46849;48.154;17.042;2023-02-04T08:56:54;1.08;;;0.70;;
60975;SDS011;46849;48.154;17.042;2023-02-04T08:59:39;1.48;;;0.90;;
60975;SDS011;46849;48.154;17.042;2023-02-04T09:02:23;2.40;;;0.90;;
60975;SDS011;46849;48.154;17.042;2023-02-04T09:05:08;1.67;;;0.77;;
60975;SDS011;46849;48.154;17.042;2023-02-04T09:07:53;4.65;;;0.70;;
60975;SDS011;46849;48.154;17.042;2023-02-04T09:10:37;2.40;;;1.15;;
60975;SDS011;46849;48.154;17.042;2023-02-04T09:13:22;1.63;;;0.70;;
60975;SDS011;46849;48.154;17.042;2023-02-04T09:16:07;1.40;;;1.00;;
60975;SDS011;46849;48.154;17.042;2023-02-04T09:18:52;2.15;;;1.00;;
60975;SDS011;46849;48.154;17.042;2023-02-04T09:21:37;1.52;;;0.88;;
60975;SDS011;46849;48.154;17.042;2023-02-04T09:24:21;1.27;;;0.90;;
60975;SDS011;46849;48.154;17.042;2023-02-04T09:27:07;2.72;;;1.95;;
60975;SDS011;46849;48.154;17.042;2023-02-04T09:29:51;1.08;;;0.68;;
60975;SDS011;46849;48.154;17.042;2023-02-04T09:32:36;3.05;;;1.33;;
60975;SDS011;46849;48.154;17.042;2023-02-04T09:35:21;3.25;;;1.50;;
60975;SDS011;46849;48.154;17.042;2023-02-04T09:38:05;1.55;;;1.10;;
60975;SDS011;46849;48.154;17.042;2023-02-04T09:40:52;2.55;;;1.50;;
60975;SDS011;46849;48.154;17.042;2023-02-04T09:43:40;1.60;;;1.00;;
60975;SDS011;46849;48.154;17.042;2023-02-04T09:46:27;2.67;;;1.00;;
60975;SDS011;46849;48.154;17.042;2023-02-04T09:49:12;1.80;;;1.20;;
60975;SDS011;46849;48.154;17.042;2023-02-04T09:51:57;3.45;;;1.02;;
60975;SDS011;46849;48.154;17.042;2023-02-04T09:54:42;2.78;;;1.50;;
60975;SDS011;46849;48.154;17.042;2023-02-04T09:57:26;1.50;;;1.00;;
60975;SDS011;46849;48.154;17.042;2023-02-04T10:00:19;2.13;;;1.23;;
60975;SDS011;46849;48.154;17.042;2023-02-04T10:03:10;2.03;;;1.50;;
60975;SDS011;46849;48.154;17.042;2023-02-04T10:05:59;1.70;;;1.27;;
60975;SDS011;46849;48.154;17.042;2023-02-04T10:08:44;2.92;;;1.48;;
60975;SDS011;46849;48.154;17.042;2023-02-04T10:11:31;2.20;;;1.30;;
60975;SDS011;46849;48.154;17.042;2023-02-04T10:14:20;2.40;;;1.20;;
60975;SDS011;46849;48.154;17.042;2023-02-04T10:17:07;2.47;;;1.40;;
60975;SDS011;46849;48.154;17.042;2023-02-04T10:19:53;2.03;;;1.00;;
60975;SDS011;46849;48.154;17.042;2023-02-04T10:22:38;2.70;;;1.30;;
60975;SDS011;46849;48.154;17.042;2023-02-04T10:25:24;2.17;;;1.20;;
60975;SDS011;46849;48.154;17.042;2023-02-04T10:28:09;3.00;;;1.70;;
60975;SDS011;46849;48.154;17.042;2023-02-04T10:30:54;2.85;;;1.50;;
60975;SDS011;46849;48.154;17.042;2023-02-04T10:33:39;2.08;;;1.20;;
60975;SDS011;46849;48.154;17.042;2023-02-04T10:36:23;2.97;;;1.30;;
60975;SDS011;46849;48.154;17.042;2023-02-04T10:39:15;2.75;;;1.85;;
60975;SDS011;46849;48.154;17.042;2023-02-04T10:42:00;1.92;;;1.35;;
60975;SDS011;46849;48.154;17.042;2023-02-04T10:44:45;1.52;;;1.30;;
60975;SDS011;46849;48.154;17.042;2023-02-04T10:47:30;2.28;;;1.58;;
60975;SDS011;46849;48.154;17.042;2023-02-04T10:50:19;2.17;;;1.60;;
60975;SDS011;46849;48.154;17.042;2023-02-04T10:53:17;2.67;;;1.48;;
60975;SDS011;46849;48.154;17.042;2023-02-04T10:56:22;3.13;;;1.85;;
60975;SDS011;46849;48.154;17.042;2023-02-04T10:59:21;3.25;;;1.30;;
60975;SDS011;46849;48.154;17.042;2023-02-04T11:02:30;2.38;;;1.27;;
60975;SDS011;46849;48.154;17.042;2023-02-04T11:05:36;2.80;;;1.52;;
60975;SDS011;46849;48.154;17.042;2023-02-04T11:08:32;2.97;;;1.40;;
60975;SDS011;46849;48.154;17.042;2023-02-04T11:11:23;2.17;;;1.42;;
60975;SDS011;46849;48.154;17.042;2023-02-04T11:14:26;2.88;;;1.67;;
60975;SDS011;46849;48.154;17.042;2023-02-04T11:17:18;2.22;;;1.25;;
60975;SDS011;46849;48.154;17.042;2023-02-04T11:20:14;2.25;;;1.50;;
60975;SDS011;46849;48.154;17.042;2023-02-04T11:23:15;2.63;;;1.60;;
60975;SDS011;46849;48.154;17.042;2023-02-04T11:26:16;2.85;;;1.40;;
60975;SDS011;46849;48.154;17.042;2023-02-04T11:34:45;4.60;;;1.83;;
60975;SDS011;46849;48.154;17.042;2023-02-04T11:43:11;4.22;;;1.67;;
60975;SDS011;46849;48.154;17.042;2023-02-04T11:46:02;2.38;;;1.60;;
60975;SDS011;46849;48.154;17.042;2023-02-04T11:48:55;2.40;;;1.50;;
60975;SDS011;46849;48.154;17.042;2023-02-04T11:51:41;1.95;;;1.50;;
60975;SDS011;46849;48.154;17.042;2023-02-04T11:54:28;2.38;;;1.20;;
60975;SDS011;46849;48.154;17.042;2023-02-04T11:57:12;3.55;;;1.90;;
60975;SDS011;46849;48.154;17.042;2023-02-04T11:59:58;2.35;;;1.27;;
60975;SDS011;46849;48.154;17.042;2023-02-04T12:02:44;3.28;;;1.83;;
60975;SDS011;46849;48.154;17.042;2023-02-04T12:05:41;3.13;;;1.67;;
60975;SDS011;46849;48.154;17.042;2023-02-04T12:08:31;4.35;;;1.80;;
60975;SDS011;46849;48.154;17.042;2023-02-04T12:11:23;2.33;;;1.30;;
60975;SDS011;46849;48.154;17.042;2023-02-04T12:14:15;2.88;;;1.52;;
60975;SDS011;46849;48.154;17.042;2023-02-04T12:20:00;2.80;;;1.70;;
60975;SDS011;46849;48.154;17.042;2023-02-04T12:22:44;4.63;;;1.58;;
60975;SDS011;46849;48.154;17.042;2023-02-04T12:25:29;2.10;;;1.20;;
60975;SDS011;46849;48.154;17.042;2023-02-04T12:28:14;2.45;;;1.48;;
60975;SDS011;46849;48.154;17.042;2023-02-04T12:30:59;3.50;;;1.85;;
60975;SDS011;46849;48.154;17.042;2023-02-04T12:33:44;3.05;;;1.38;;
60975;SDS011;46849;48.154;17.042;2023-02-04T12:36:29;2.38;;;1.30;;
60975;SDS011;46849;48.154;17.042;2023-02-04T12:39:14;2.63;;;1.70;;
60975;SDS011;46849;48.154;17.042;2023-02-04T12:41:58;3.13;;;1.55;;
60975;SDS011;46849;48.154;17.042;2023-02-04T12:44:43;2.85;;;1.30;;
60975;SDS011;46849;48.154;17.042;2023-02-04T12:47:28;2.42;;;1.52;;
60975;SDS011;46849;48.154;17.042;2023-02-04T12:50:14;5.40;;;1.45;;
60975;SDS011;46849;48.154;17.042;2023-02-04T12:53:05;3.28;;;1.45;;
60975;SDS011;46849;48.154;17.042;2023-02-04T12:55:50;2.55;;;1.30;;
60975;SDS011;46849;48.154;17.042;2023-02-04T12:58:35;1.95;;;0.93;;
60975;SDS011;46849;48.154;17.042;2023-02-04T13:01:20;2.92;;;1.45;;
60975;SDS011;46849;48.154;17.042;2023-02-04T13:04:04;2.85;;;1.73;;
60975;SDS011;46849;48.154;17.042;2023-02-04T13:06:49;2.67;;;1.35;;
60975;SDS011;46849;48.154;17.042;2023-02-04T13:09:34;3.17;;;1.48;;
60975;SDS011;46849;48.154;17.042;2023-02-04T13:12:20;5.60;;;1.83;;
60975;SDS011;46849;48.154;17.042;2023-02-04T13:15:05;2.15;;;1.33;;
60975;SDS011;46849;48.154;17.042;2023-02-04T13:17:51;3.53;;;1.05;;
60975;SDS011;46849;48.154;17.042;2023-02-04T13:20:36;1.70;;;1.05;;
60975;SDS011;46849;48.154;17.042;2023-02-04T13:23:20;2.20;;;1.40;;
60975;SDS011;46849;48.154;17.042;2023-02-04T13:26:05;2.63;;;1.23;;
60975;SDS011;46849;48.154;17.042;2023-02-04T13:28:51;2.33;;;1.20;;
60975;SDS011;46849;48.154;17.042;2023-02-04T13:31:35;2.53;;;1.50;;
60975;SDS011;46849;48.154;17.042;2023-02-04T13:34:20;3.83;;;1.50;;
60975;SDS011;46849;48.154;17.042;2023-02-04T13:37:05;2.03;;;0.90;;
60975;SDS011;46849;48.154;17.042;2023-02-04T13:39:50;2.08;;;1.10;;
60975;SDS011;46849;48.154;17.042;2023-02-04T13:42:34;4.28;;;1.33;;
60975;SDS011;46849;48.154;17.042;2023-02-04T13:45:19;1.42;;;0.80;;
60975;SDS011;46849;48.154;17.042;2023-02-04T13:48:04;1.85;;;1.10;;
60975;SDS011;46849;48.154;17.042;2023-02-04T13:50:49;2.50;;;0.90;;
60975;SDS011;46849;48.154;17.042;2023-02-04T13:53:36;1.83;;;0.90;;
60975;SDS011;46849;48.154;17.042;2023-02-04T13:56:20;1.60;;;0.88;;
60975;SDS011;46849;48.154;17.042;2023-02-04T13:59:05;2.50;;;0.93;;
60975;SDS011;46849;48.154;17.042;2023-02-04T14:01:50;1.27;;;0.70;;
60975;SDS011;46849;48.154;17.042;2023-02-04T14:04:35;1.42;;;0.70;;
60975;SDS011;46849;48.154;17.042;2023-02-04T14:07:19;1.50;;;0.70;;
60975;SDS011;46849;48.154;17.042;2023-02-04T14:10:04;1.70;;;0.65;;
60975;SDS011;46849;48.154;17.042;2023-02-04T14:12:50;1.83;;;0.75;;
60975;SDS011;46849;48.154;17.042;2023-02-04T14:15:35;1.58;;;0.80;;
60975;SDS011;46849;48.154;17.042;2023-02-04T14:18:21;1.00;;;0.70;;
60975;SDS011;46849;48.154;17.042;2023-02-04T14:21:05;0.93;;;0.60;;
60975;SDS011;46849;48.154;17.042;2023-02-04T14:23:50;1.40;;;0.68;;
60975;SDS011;46849;48.154;17.042;2023-02-04T14:26:35;1.50;;;0.60;;
60975;SDS011;46849;48.154;17.042;2023-02-04T14:29:20;1.60;;;0.73;;
60975;SDS011;46849;48.154;17.042;2023-02-04T14:32:04;2.63;;;0.63;;
60975;SDS011;46849;48.154;17.042;2023-02-04T14:34:49;1.30;;;0.70;;
60975;SDS011;46849;48.154;17.042;2023-02-04T14:37:34;1.60;;;0.77;;
60975;SDS011;46849;48.154;17.042;2023-02-04T14:40:19;1.13;;;0.52;;
60975;SDS011;46849;48.154;17.042;2023-02-04T14:43:03;1.42;;;0.60;;
60975;SDS011;46849;48.154;17.042;2023-02-04T14:45:48;1.42;;;0.57;;
60975;SDS011;46849;48.154;17.042;2023-02-04T14:48:32;0.77;;;0.43;;
60975;SDS011;46849;48.154;17.042;2023-02-04T14:51:17;0.68;;;0.43;;
60975;SDS011;46849;48.154;17.042;2023-02-04T14:54:03;1.50;;;0.60;;
60975;SDS011;46849;48.154;17.042;2023-02-04T14:56:48;0.82;;;0.50;;
60975;SDS011;46849;48.154;17.042;2023-02-04T14:59:33;1.92;;;0.60;;
60975;SDS011;46849;48.154;17.042;2023-02-04T15:02:18;1.75;;;0.52;;
60975;SDS011;46849;48.154;17.042;2023-02-04T15:05:03;1.15;;;0.70;;
60975;SDS011;46849;48.154;17.042;2023-02-04T15:07:48;1.00;;;0.50;;
60975;SDS011;46849;48.154;17.042;2023-02-04T15:10:33;1.33;;;0.65;;
60975;SDS011;46849;48.154;17.042;2023-02-04T15:13:18;1.15;;;0.75;;
60975;SDS011;46849;48.154;17.042;2023-02-04T15:16:03;1.83;;;0.60;;
60975;SDS011;46849;48.154;17.042;2023-02-04T15:18:50;1.95;;;0.65;;
60975;SDS011;46849;48.154;17.042;2023-02-04T15:21:34;1.33;;;0.60;;
60975;SDS011;46849;48.154;17.042;2023-02-04T15:24:19;2.17;;;0.93;;
60975;SDS011;46849;48.154;17.042;2023-02-04T15:27:07;1.95;;;0.70;;
60975;SDS011;46849;48.154;17.042;2023-02-04T15:29:52;1.88;;;0.70;;
60975;SDS011;46849;48.154;17.042;2023-02-04T15:32:39;1.27;;;0.65;;
60975;SDS011;46849;48.154;17.042;2023-02-04T15:35:26;1.80;;;0.60;;
60975;SDS011;46849;48.154;17.042;2023-02-04T15:38:11;2.03;;;0.60;;
60975;SDS011;46849;48.154;17.042;2023-02-04T15:40:56;1.67;;;0.77;;
60975;SDS011;46849;48.154;17.042;2023-02-04T15:43:40;3.25;;;0.70;;
60975;SDS011;46849;48.154;17.042;2023-02-04T15:46:25;2.65;;;1.13;;
60975;SDS011;46849;48.154;17.042;2023-02-04T15:49:10;1.15;;;0.50;;
60975;SDS011;46849;48.154;17.042;2023-02-04T15:51:54;1.92;;;0.85;;
60975;SDS011;46849;48.154;17.042;2023-02-04T15:54:39;1.80;;;0.77;;
60975;SDS011;46849;48.154;17.042;2023-02-04T15:57:24;1.52;;;0.55;;
60975;SDS011;46849;48.154;17.042;2023-02-04T16:00:08;2.13;;;0.70;;
60975;SDS011;46849;48.154;17.042;2023-02-04T16:02:53;2.03;;;0.80;;
60975;SDS011;46849;48.154;17.042;2023-02-04T16:05:39;1.67;;;0.68;;
60975;SDS011;46849;48.154;17.042;2023-02-04T16:08:24;1.65;;;0.65;;
60975;SDS011;46849;48.154;17.042;2023-02-04T16:11:08;1.60;;;0.73;;
60975;SDS011;46849;48.154;17.042;2023-02-04T16:13:53;2.42;;;0.85;;
60975;SDS011;46849;48.154;17.042;2023-02-04T16:16:37;1.67;;;0.45;;
60975;SDS011;46849;48.154;17.042;2023-02-04T16:19:22;2.50;;;0.75;;
60975;SDS011;46849;48.154;17.042;2023-02-04T16:22:07;1.50;;;0.60;;
60975;SDS011;46849;48.154;17.042;2023-02-04T16:24:51;1.38;;;0.70;;
60975;SDS011;46849;48.154;17.042;2023-02-04T16:27:36;2.55;;;0.63;;
60975;SDS011;46849;48.154;17.042;2023-02-04T16:30:21;1.95;;;1.00;;
60975;SDS011;46849;48.154;17.042;2023-02-04T16:33:05;3.13;;;0.90;;
60975;SDS011;46849;48.154;17.042;2023-02-04T16:39:02;2.97;;;0.85;;
60975;SDS011;46849;48.154;17.042;2023-02-04T16:41:47;2.85;;;0.73;;
60975;SDS011;46849;48.154;17.042;2023-02-04T16:44:31;2.42;;;0.82;;